Amity Harbor, New York
Current Conditions -  °F | °C
As of 6:56 AM on Wednesday 26 Nov 2014 (Local Time) from KISP Reporting Station
Light Rain Light Rain  
Wind Chill: 40°   Ceiling: 8000
Heat Index: 44°   Visibility: 10mi
Dew Point: 34°   Wind: 8mph
Humidity: 68%   Direction: 20°NNE
Pressure: 30.12"   Gusts: NA
Location:  40.6858°N, 73.4152°W
Report Text: KISP 261156Z 02007KT 10SM -RA FEW060 OVC080 07/01 A3012 RMK AO2 SLP199 P0000 60001 70001 T00670011 10094 20067 55003
Loading
Personal Weather Stations






























Interactive Weather Map New forecast layout! Learn more

10-Day Weather Forecast

Advertisements
Track Severe Weather on mobile